createdAt,value
2024-04-23T00:01:06.510Z,99381.25
2024-04-23T00:03:33.229Z,99390.09
2024-04-23T00:06:00.018Z,99396.91
2024-04-23T00:08:27.015Z,99387.97
2024-04-23T00:10:53.960Z,99385.66
2024-04-23T00:13:20.847Z,99387.03
2024-04-23T00:15:47.743Z,99384.59
2024-04-23T00:18:14.602Z,99380.34
2024-04-23T00:20:41.399Z,99376.22
2024-04-23T00:23:08.067Z,99370.72
2024-04-23T00:25:34.793Z,99370.78
2024-04-23T00:28:01.642Z,99370.78
2024-04-23T00:30:28.492Z,99375.34
2024-04-23T00:32:55.263Z,99369.22
2024-04-23T00:35:22.132Z,99369.69
2024-04-23T00:37:49.129Z,99362.34
2024-04-23T00:40:15.798Z,99363.69
2024-04-23T00:42:42.690Z,99376.41
2024-04-23T00:45:10.879Z,99361.97
2024-04-23T00:47:37.767Z,99365.44
2024-04-23T00:50:04.742Z,99362.16
2024-04-23T00:52:32.391Z,99359.63
2024-04-23T00:54:59.481Z,99368.03
2024-04-23T00:57:26.413Z,99363.66
2024-04-23T00:59:53.627Z,99364.03
2024-04-23T01:02:20.509Z,99359.25
2024-04-23T01:04:47.555Z,99359.91
2024-04-23T01:07:14.482Z,99363.31
2024-04-23T01:09:41.318Z,99365.91
2024-04-23T01:12:08.315Z,99361.53
2024-04-23T01:14:38.429Z,99361.88
2024-04-23T01:17:06.361Z,99360.53
2024-04-23T01:19:40.779Z,99364.63
2024-04-23T01:22:16.014Z,99361.97
2024-04-23T01:25:07.308Z,99361.88
2024-04-23T01:27:35.000Z,99365.22
2024-04-23T01:30:02.102Z,99354.00
2024-04-23T01:32:30.886Z,99355.72
2024-04-23T01:35:09.563Z,99358.50
2024-04-23T01:37:37.431Z,99351.56
2024-04-23T01:40:05.196Z,99356.78
2024-04-23T01:42:33.654Z,99346.50
2024-04-23T01:45:01.686Z,99348.97
2024-04-23T01:47:28.707Z,99355.69
2024-04-23T01:49:56.737Z,99353.13
2024-04-23T01:52:23.832Z,99351.41
2024-04-23T01:54:50.892Z,99353.34
2024-04-23T01:57:18.546Z,99352.53
2024-04-23T01:59:54.911Z,99348.78
2024-04-23T02:02:22.675Z,99344.41
2024-04-23T02:04:49.862Z,99351.56
2024-04-23T02:07:18.054Z,99345.28
2024-04-23T02:09:47.120Z,99341.00
2024-04-23T02:12:18.249Z,99345.41
2024-04-23T02:14:44.941Z,99339.13
2024-04-23T02:17:12.915Z,99339.13
2024-04-23T02:19:39.904Z,99337.34
2024-04-23T02:22:06.764Z,99333.91
2024-04-23T02:24:33.508Z,99321.72
2024-04-23T02:27:00.699Z,99322.69
2024-04-23T02:29:27.534Z,99323.31
2024-04-23T02:31:54.325Z,99314.69
2024-04-23T02:34:21.281Z,99321.41
2024-04-23T02:36:48.102Z,99304.03
2024-04-23T02:39:14.902Z,99314.38
2024-04-23T02:41:51.868Z,99309.78
2024-04-23T02:44:19.287Z,99311.66
2024-04-23T02:46:46.789Z,99310.03
2024-04-23T02:49:13.633Z,99308.88
2024-04-23T02:51:50.441Z,99309.56
2024-04-23T02:54:17.214Z,99312.06
2024-04-23T02:56:49.206Z,99312.06
2024-04-23T02:59:16.585Z,99311.16
2024-04-23T03:01:43.262Z,99312.16
2024-04-23T03:04:10.167Z,99306.22
2024-04-23T03:06:36.901Z,99305.38
2024-04-23T03:09:04.011Z,99306.22
2024-04-23T03:11:31.086Z,99301.69
2024-04-23T03:13:57.923Z,99300.97
2024-04-23T03:16:24.990Z,99307.56
2024-04-23T03:18:51.704Z,99312.94
2024-04-23T03:21:18.589Z,99306.47
2024-04-23T03:23:45.391Z,99307.63
2024-04-23T03:26:12.305Z,99310.94
2024-04-23T03:28:39.090Z,99295.16
2024-04-23T03:31:05.961Z,99302.84
2024-04-23T03:33:32.821Z,99300.25
2024-04-23T03:35:59.638Z,99302.53
2024-04-23T03:38:26.631Z,99300.97
2024-04-23T03:40:53.387Z,99292.09
2024-04-23T03:43:20.168Z,99293.81
2024-04-23T03:45:47.010Z,99293.88
2024-04-23T03:48:13.999Z,99293.09
2024-04-23T03:50:40.717Z,99285.97
2024-04-23T03:53:07.573Z,99282.44
2024-04-23T03:55:34.368Z,99283.44
2024-04-23T03:58:01.242Z,99280.66
2024-04-23T04:00:28.939Z,99281.38
2024-04-23T04:03:14.304Z,99272.88
2024-04-23T04:05:59.618Z,99278.09
2024-04-23T04:08:26.406Z,99268.44
2024-04-23T04:10:53.318Z,99271.09
2024-04-23T04:13:23.901Z,99273.78
2024-04-23T04:15:51.969Z,99276.31
2024-04-23T04:18:19.845Z,99272.03
2024-04-23T04:20:47.053Z,99276.31
2024-04-23T04:23:13.850Z,99274.78
2024-04-23T04:25:40.810Z,99276.56
2024-04-23T04:28:07.745Z,99279.22
2024-04-23T04:30:34.425Z,99275.16
2024-04-23T04:33:01.401Z,99275.03
2024-04-23T04:35:28.379Z,99269.75
2024-04-23T04:37:56.396Z,99277.03
2024-04-23T04:40:23.361Z,99257.81
2024-04-23T04:42:52.210Z,99258.66
2024-04-23T04:45:19.656Z,99265.44
2024-04-23T04:47:50.346Z,99261.22
2024-04-23T04:50:20.791Z,99262.94
2024-04-23T04:52:47.948Z,99260.44
2024-04-23T04:55:14.851Z,99277.03
2024-04-23T04:57:41.850Z,99271.13
2024-04-23T05:00:09.261Z,99267.22
2024-04-23T05:02:36.012Z,99271.72
2024-04-23T05:05:03.036Z,99272.97
2024-04-23T05:07:29.984Z,99278.50
2024-04-23T05:09:57.112Z,99277.91
2024-04-23T05:12:23.980Z,99276.03
2024-04-23T05:14:50.818Z,99266.84
2024-04-23T05:17:17.630Z,99268.56
2024-04-23T05:19:45.969Z,99268.72
2024-04-23T05:22:13.351Z,99269.41
2024-04-23T05:24:40.492Z,99262.88
2024-04-23T05:27:07.538Z,99260.78
2024-04-23T05:29:34.283Z,99263.84
2024-04-23T05:32:19.687Z,99257.13
2024-04-23T05:34:46.705Z,99257.28
2024-04-23T05:37:13.603Z,99257.44
2024-04-23T05:39:40.379Z,99263.00
2024-04-23T05:42:07.293Z,99264.94
2024-04-23T05:44:34.113Z,99258.22
2024-04-23T05:47:01.056Z,99256.66
2024-04-23T05:50:05.578Z,99258.63
2024-04-23T05:53:10.044Z,99247.63
2024-04-23T05:55:39.727Z,99258.91
2024-04-23T05:58:06.954Z,99260.78
2024-04-23T06:00:34.580Z,99256.47
2024-04-23T06:03:02.157Z,99265.16
2024-04-23T06:05:29.209Z,99260.00
2024-04-23T06:07:56.807Z,99259.28
2024-04-23T06:10:23.691Z,99259.97
2024-04-23T06:12:51.342Z,99265.16
2024-04-23T06:15:19.216Z,99258.31
2024-04-23T06:17:48.274Z,99257.59
2024-04-23T06:20:16.162Z,99262.88
2024-04-23T06:22:44.125Z,99263.75
2024-04-23T06:25:11.678Z,99262.25
2024-04-23T06:27:40.038Z,99267.59
2024-04-23T06:30:07.939Z,99267.59
2024-04-23T06:32:34.910Z,99261.56
2024-04-23T06:35:03.734Z,99262.56
2024-04-23T06:37:30.924Z,99264.50
2024-04-23T06:40:03.285Z,99258.38
2024-04-23T06:42:30.181Z,99260.06
2024-04-23T06:44:58.879Z,99255.59
2024-04-23T06:47:26.205Z,99258.22
2024-04-23T06:49:53.121Z,99256.53
2024-04-23T06:52:19.924Z,99253.06
2024-04-23T06:54:46.775Z,99246.09
2024-04-23T06:57:14.287Z,99243.50
2024-04-23T06:59:44.275Z,99250.59
2024-04-23T07:02:12.568Z,99253.22
2024-04-23T07:04:39.728Z,99247.94
2024-04-23T07:07:07.005Z,99248.88
2024-04-23T07:09:34.139Z,99252.69
2024-04-23T07:12:00.989Z,99254.44
2024-04-23T07:14:27.690Z,99250.94
2024-04-23T07:16:54.624Z,99243.22
2024-04-23T07:19:21.322Z,99241.56
2024-04-23T07:21:48.359Z,99242.53
2024-04-23T07:24:15.060Z,99241.75
2024-04-23T07:26:43.448Z,99245.44
2024-04-23T07:29:10.433Z,99234.31
2024-04-23T07:31:37.552Z,99238.09
2024-04-23T07:34:04.617Z,99228.44
2024-04-23T07:36:31.488Z,99231.97
2024-04-23T07:38:58.320Z,99228.56
2024-04-23T07:41:25.058Z,99235.69
2024-04-23T07:43:52.033Z,99225.53
2024-04-23T07:46:18.805Z,99223.28
2024-04-23T07:48:45.659Z,99218.44
2024-04-23T07:51:12.440Z,99215.09
2024-04-23T07:53:39.356Z,99213.13
2024-04-23T07:56:08.672Z,99216.22
2024-04-23T07:58:39.346Z,99209.19
2024-04-23T08:01:06.988Z,99207.03
2024-04-23T08:03:35.606Z,99198.75
2024-04-23T08:06:03.643Z,99202.00
2024-04-23T08:08:30.525Z,99208.44
2024-04-23T08:10:57.411Z,99201.91
2024-04-23T08:13:24.243Z,99202.53
2024-04-23T08:15:51.062Z,99193.13
2024-04-23T08:18:17.974Z,99187.44
2024-04-23T08:20:44.700Z,99184.75
2024-04-23T08:23:11.611Z,99178.91
2024-04-23T08:25:38.404Z,99180.59
2024-04-23T08:28:05.476Z,99178.91
2024-04-23T08:30:33.543Z,99180.78
2024-04-23T08:33:00.684Z,99173.53
2024-04-23T08:35:27.825Z,99172.56
2024-04-23T08:37:54.788Z,99176.25
2024-04-23T08:40:22.480Z,99175.34
2024-04-23T08:42:53.465Z,99175.66
2024-04-23T08:45:26.222Z,99173.09
2024-04-23T08:47:53.590Z,99169.34
2024-04-23T08:50:23.226Z,99168.56
2024-04-23T08:52:50.783Z,99167.09
2024-04-23T08:55:18.167Z,99165.59
2024-04-23T08:57:45.525Z,99164.72
2024-04-23T09:00:13.207Z,99155.44
2024-04-23T09:02:42.316Z,99147.19
2024-04-23T09:05:10.371Z,99145.59
2024-04-23T09:07:38.527Z,99142.28
2024-04-23T09:10:07.489Z,99135.53
2024-04-23T09:12:35.205Z,99141.09
2024-04-23T09:15:02.661Z,99126.56
2024-04-23T09:17:33.692Z,99117.28
2024-04-23T09:20:06.054Z,99127.38
2024-04-23T09:22:33.000Z,99129.53
2024-04-23T09:25:06.034Z,99125.41
2024-04-23T09:27:38.040Z,99127.03
2024-04-23T09:30:05.547Z,99126.00
2024-04-23T09:32:32.924Z,99120.41
2024-04-23T09:35:00.194Z,99119.44
2024-04-23T09:37:27.258Z,99117.41
2024-04-23T09:40:02.401Z,99112.69
2024-04-23T09:42:29.308Z,99109.06
2024-04-23T09:44:56.125Z,99097.13
2024-04-23T09:47:26.959Z,99115.56
2024-04-23T09:49:55.969Z,99110.63
2024-04-23T09:52:34.297Z,99109.00
2024-04-23T09:55:02.164Z,99108.38
2024-04-23T09:57:29.050Z,99102.66
2024-04-23T09:59:55.942Z,99104.03
2024-04-23T10:02:30.657Z,99097.84
2024-04-23T10:05:08.861Z,99101.47
2024-04-23T10:07:53.622Z,99094.28
2024-04-23T10:10:27.341Z,99095.09
2024-04-23T10:12:57.225Z,99088.00
2024-04-23T10:15:33.002Z,99082.72
2024-04-23T10:18:25.852Z,99078.53
2024-04-23T10:20:54.370Z,99069.91
2024-04-23T10:23:21.694Z,99069.06
2024-04-23T10:25:49.382Z,99065.69
2024-04-23T10:28:16.956Z,99064.78
2024-04-23T10:30:44.123Z,99062.94
2024-04-23T10:33:13.503Z,99057.66
2024-04-23T10:35:40.852Z,99055.78
2024-04-23T10:38:09.997Z,99052.06
2024-04-23T10:40:46.223Z,99056.34
2024-04-23T10:43:19.920Z,99042.16
2024-04-23T10:45:47.085Z,99043.06
2024-04-23T10:48:14.049Z,99042.94
2024-04-23T10:50:40.956Z,99029.00
2024-04-23T10:53:09.347Z,99034.19
2024-04-23T10:55:36.752Z,99037.69
2024-04-23T10:58:03.658Z,99035.00
2024-04-23T11:00:38.445Z,99027.03
2024-04-23T11:03:18.600Z,99028.91
2024-04-23T11:05:49.738Z,99034.28
2024-04-23T11:08:27.511Z,99031.63
2024-04-23T11:11:00.156Z,99023.91
2024-04-23T11:13:45.752Z,99020.63
2024-04-23T11:16:21.280Z,99019.00
2024-04-23T11:18:54.140Z,99013.66
2024-04-23T11:21:32.437Z,99010.91
2024-04-23T11:24:07.465Z,99005.53
2024-04-23T11:26:37.241Z,99004.69
2024-04-23T11:29:10.451Z,98994.22
2024-04-23T11:31:37.629Z,98986.41
2024-04-23T11:34:04.767Z,98989.00
2024-04-23T11:36:36.385Z,98980.19
2024-04-23T11:39:08.817Z,98984.53
2024-04-23T11:41:35.486Z,98979.16
2024-04-23T11:44:03.009Z,98978.22
2024-04-23T11:46:33.469Z,98976.47
2024-04-23T11:49:00.146Z,98973.81
2024-04-23T11:51:26.891Z,98971.06
2024-04-23T11:53:56.042Z,98958.00
2024-04-23T11:56:23.735Z,98969.41
2024-04-23T11:58:50.431Z,98971.97
2024-04-23T12:01:17.093Z,98964.03
2024-04-23T12:03:44.716Z,98960.53
2024-04-23T12:06:12.419Z,98949.91
2024-04-23T12:08:39.949Z,98959.50
2024-04-23T12:11:07.346Z,98951.56
2024-04-23T12:13:34.374Z,98955.00
2024-04-23T12:16:05.500Z,98948.88
2024-04-23T12:18:32.365Z,98945.44
2024-04-23T12:20:59.162Z,98947.19
2024-04-23T12:23:26.562Z,98937.44
2024-04-23T12:25:54.056Z,98944.47
2024-04-23T12:28:22.028Z,98937.50
2024-04-23T12:30:48.782Z,98928.75
2024-04-23T12:33:15.753Z,98928.75
2024-04-23T12:35:43.408Z,98924.44
2024-04-23T12:38:14.354Z,98923.63
2024-04-23T12:40:41.665Z,98910.47
2024-04-23T12:43:12.405Z,98909.75
2024-04-23T12:45:39.831Z,98903.69
2024-04-23T12:48:06.881Z,98908.06
2024-04-23T12:50:33.807Z,98898.38
2024-04-23T12:53:00.960Z,98896.66
2024-04-23T12:55:29.185Z,98892.16
2024-04-23T12:57:55.930Z,98891.19
2024-04-23T13:00:22.543Z,98892.09
2024-04-23T13:02:49.256Z,98892.09
2024-04-23T13:05:16.076Z,98888.56
2024-04-23T13:07:42.729Z,98887.69
2024-04-23T13:10:09.521Z,98888.63
2024-04-23T13:12:36.142Z,98882.38
2024-04-23T13:15:02.833Z,98876.22
2024-04-23T13:17:29.505Z,98876.34
2024-04-23T13:20:00.443Z,98871.28
2024-04-23T13:22:28.101Z,98867.91
2024-04-23T13:24:54.719Z,98864.25
2024-04-23T13:27:21.378Z,98859.84
2024-04-23T13:29:48.150Z,98854.56
2024-04-23T13:32:15.030Z,98845.88
2024-04-23T13:34:41.858Z,98843.25
2024-04-23T13:37:08.664Z,98839.75
2024-04-23T13:39:35.375Z,98838.72
2024-04-23T13:42:02.431Z,98832.59
2024-04-23T13:44:33.997Z,98825.56
2024-04-23T13:47:01.319Z,98826.47
2024-04-23T13:49:28.027Z,98818.56
2024-04-23T13:51:54.651Z,98816.81
2024-04-23T13:54:21.263Z,98817.69
2024-04-23T13:56:48.011Z,98823.84
2024-04-23T13:59:17.197Z,98817.63
2024-04-23T14:01:44.396Z,98806.25
2024-04-23T14:04:12.180Z,98809.75
2024-04-23T14:06:38.901Z,98805.38
2024-04-23T14:09:05.960Z,98805.34
2024-04-23T14:11:32.906Z,98801.81
2024-04-23T14:13:59.668Z,98789.50
2024-04-23T14:16:26.426Z,98792.97
2024-04-23T14:18:53.573Z,98794.72
2024-04-23T14:21:20.497Z,98790.31
2024-04-23T14:23:47.187Z,98794.66
2024-04-23T14:26:18.312Z,98796.34
2024-04-23T14:28:45.370Z,98790.19
2024-04-23T14:31:12.105Z,98798.97
2024-04-23T14:33:44.818Z,98790.19
2024-04-23T14:36:13.141Z,98783.16
2024-04-23T14:38:40.870Z,98775.22
2024-04-23T14:41:08.348Z,98769.91
2024-04-23T14:43:35.321Z,98774.31
2024-04-23T14:46:12.842Z,98772.56
2024-04-23T14:48:40.261Z,98763.75
2024-04-23T14:51:07.154Z,98769.91
2024-04-23T14:53:34.148Z,98762.88
2024-04-23T14:56:02.198Z,98760.31
2024-04-23T14:58:30.251Z,98761.22
2024-04-23T15:00:57.551Z,98758.59
2024-04-23T15:03:24.691Z,98760.34
2024-04-23T15:05:51.477Z,98741.84
2024-04-23T15:08:18.291Z,98746.28
2024-04-23T15:10:53.902Z,98742.78
2024-04-23T15:13:23.220Z,98746.28
2024-04-23T15:16:02.178Z,98734.84
2024-04-23T15:18:33.060Z,98739.22
2024-04-23T15:21:08.648Z,98736.56
2024-04-23T15:23:35.923Z,98734.81
2024-04-23T15:26:03.331Z,98729.53
2024-04-23T15:28:34.696Z,98728.66
2024-04-23T15:31:02.294Z,98732.19
2024-04-23T15:33:29.656Z,98730.41
2024-04-23T15:36:09.449Z,98735.63
2024-04-23T15:38:37.304Z,98733.88
2024-04-23T15:41:05.191Z,98732.13
2024-04-23T15:43:32.771Z,98732.97
2024-04-23T15:46:00.024Z,98729.44
2024-04-23T15:48:29.704Z,98732.06
2024-04-23T15:51:00.487Z,98727.66
2024-04-23T15:53:30.235Z,98719.69
2024-04-23T15:56:01.107Z,98721.41
2024-04-23T15:58:31.817Z,98716.16
2024-04-23T16:01:09.616Z,98710.97
2024-04-23T16:03:37.595Z,98704.81
2024-04-23T16:06:05.522Z,98696.97
2024-04-23T16:08:33.606Z,98696.06
2024-04-23T16:11:02.291Z,98689.00
2024-04-23T16:13:30.066Z,98681.16
2024-04-23T16:15:58.094Z,98675.03
2024-04-23T16:18:27.194Z,98672.41
2024-04-23T16:20:54.341Z,98681.13
2024-04-23T16:23:22.372Z,98664.41
2024-04-23T16:25:49.034Z,98662.69
2024-04-23T16:28:15.711Z,98656.50
2024-04-23T16:30:43.797Z,98653.84
2024-04-23T16:33:10.880Z,98655.63
2024-04-23T16:35:40.158Z,98646.00
2024-04-23T16:38:07.793Z,98644.22
2024-04-23T16:40:34.470Z,98637.19
2024-04-23T16:43:01.065Z,98637.19
2024-04-23T16:45:27.762Z,98635.41
2024-04-23T16:47:54.420Z,98624.81
2024-04-23T16:50:21.219Z,98621.31
2024-04-23T16:52:47.864Z,98624.78
2024-04-23T16:55:14.521Z,98626.50
2024-04-23T16:57:43.125Z,98615.91
2024-04-23T17:00:10.258Z,98617.63
2024-04-23T17:02:36.951Z,98623.78
2024-04-23T17:05:03.833Z,98617.63
2024-04-23T17:07:32.208Z,98618.50
2024-04-23T17:09:59.158Z,98615.88
2024-04-23T17:12:26.276Z,98614.13
2024-04-23T17:14:52.857Z,98615.00
2024-04-23T17:17:19.567Z,98620.25
2024-04-23T17:19:46.294Z,98610.53
2024-04-23T17:22:12.892Z,98608.72
2024-04-23T17:24:39.541Z,98602.56
2024-04-23T17:27:06.230Z,98600.81
2024-04-23T17:29:32.864Z,98599.00
2024-04-23T17:32:01.618Z,98599.84
2024-04-23T17:34:31.215Z,98592.81
2024-04-23T17:36:58.594Z,98586.63
2024-04-23T17:39:25.317Z,98585.81
2024-04-23T17:41:52.233Z,98585.81
2024-04-23T17:44:18.987Z,98578.78
2024-04-23T17:46:45.873Z,98583.09
2024-04-23T17:49:12.837Z,98569.06
2024-04-23T17:51:39.485Z,98574.31
2024-04-23T17:54:06.218Z,98571.63
2024-04-23T17:56:33.373Z,98563.75
2024-04-23T17:59:00.268Z,98567.25
2024-04-23T18:01:26.870Z,98564.66
2024-04-23T18:03:53.561Z,98562.00
2024-04-23T18:06:20.238Z,98560.28
2024-04-23T18:08:46.917Z,98556.75
2024-04-23T18:11:15.908Z,98561.16
2024-04-23T18:13:42.660Z,98560.28
2024-04-23T18:16:10.544Z,98557.59
2024-04-23T18:18:37.379Z,98561.09
2024-04-23T18:21:04.650Z,98560.22
2024-04-23T18:23:35.398Z,98548.78
2024-04-23T18:26:02.150Z,98554.88
2024-04-23T18:28:34.193Z,98546.97
2024-04-23T18:31:04.875Z,98545.13
2024-04-23T18:33:31.664Z,98532.78
2024-04-23T18:36:05.404Z,98540.66
2024-04-23T18:38:32.907Z,98537.13
2024-04-23T18:41:13.422Z,98532.69
2024-04-23T18:43:40.520Z,98539.69
2024-04-23T18:46:17.160Z,98538.78
2024-04-23T18:48:47.658Z,98536.06
2024-04-23T18:51:15.057Z,98538.72
2024-04-23T18:53:42.696Z,98537.81
2024-04-23T18:56:13.948Z,98538.72
2024-04-23T18:58:41.132Z,98529.06
2024-04-23T19:01:15.340Z,98533.34
2024-04-23T19:03:42.620Z,98536.84
2024-04-23T19:06:12.777Z,98534.19
2024-04-23T19:08:39.585Z,98532.44
2024-04-23T19:11:06.387Z,98532.47
2024-04-23T19:13:32.998Z,98529.91
2024-04-23T19:16:09.571Z,98526.41
2024-04-23T19:18:36.472Z,98529.84
2024-04-23T19:21:03.461Z,98521.06
2024-04-23T19:23:30.165Z,98521.06
2024-04-23T19:26:01.168Z,98516.72
2024-04-23T19:28:27.891Z,98521.16
2024-04-23T19:30:56.005Z,98517.66
2024-04-23T19:33:22.815Z,98509.78
2024-04-23T19:35:51.901Z,98505.41
2024-04-23T19:38:19.715Z,98508.91
2024-04-23T19:40:46.472Z,98507.16
2024-04-23T19:43:13.134Z,98499.25
2024-04-23T19:45:39.781Z,98498.38
2024-04-23T19:48:06.613Z,98499.28
2024-04-23T19:50:33.213Z,98498.41
2024-04-23T19:52:59.828Z,98490.50
2024-04-23T19:55:26.469Z,98486.13
2024-04-23T19:58:11.741Z,98486.13
2024-04-23T20:00:41.277Z,98484.34
2024-04-23T20:03:08.545Z,98479.97
2024-04-23T20:05:36.032Z,98477.34
2024-04-23T20:08:02.696Z,98477.28
2024-04-23T20:10:29.394Z,98465.88
2024-04-23T20:12:55.981Z,98461.50
2024-04-23T20:15:22.604Z,98457.97
2024-04-23T20:17:49.436Z,98458.84
2024-04-23T20:20:16.230Z,98458.78
2024-04-23T20:22:42.935Z,98453.53
2024-04-23T20:25:09.546Z,98457.09
2024-04-23T20:27:36.229Z,98455.34
2024-04-23T20:30:03.723Z,98443.06
2024-04-23T20:32:30.406Z,98444.78
2024-04-23T20:34:57.111Z,98447.41
2024-04-23T20:37:23.710Z,98446.53
2024-04-23T20:39:50.354Z,98436.88
2024-04-23T20:42:16.952Z,98438.63
2024-04-23T20:44:43.661Z,98430.72
2024-04-23T20:47:10.388Z,98427.19
2024-04-23T20:49:37.044Z,98423.63
2024-04-23T20:52:03.731Z,98413.09
2024-04-23T20:54:30.303Z,98417.44
2024-04-23T20:56:56.926Z,98413.03
2024-04-23T20:59:23.952Z,98413.00
2024-04-23T21:01:50.639Z,98412.13
2024-04-23T21:04:17.344Z,98405.13
2024-04-23T21:06:44.072Z,98410.38
2024-04-23T21:09:10.943Z,98405.13
2024-04-23T21:11:40.330Z,98404.16
2024-04-23T21:14:07.557Z,98402.28
2024-04-23T21:16:34.355Z,98400.41
2024-04-23T21:19:01.056Z,98397.66
2024-04-23T21:21:27.678Z,98399.38
2024-04-23T21:23:54.313Z,98395.91
2024-04-23T21:26:21.192Z,98391.69
2024-04-23T21:28:48.107Z,98399.66
2024-04-23T21:31:14.770Z,98399.69
2024-04-23T21:33:41.497Z,98390.94
2024-04-23T21:36:09.697Z,98390.06
2024-04-23T21:38:37.748Z,98387.50
2024-04-23T21:41:09.623Z,98383.06
2024-04-23T21:43:37.513Z,98381.38
2024-04-23T21:46:13.014Z,98377.00
2024-04-23T21:48:39.741Z,98372.63
2024-04-23T21:51:10.602Z,98369.13
2024-04-23T21:53:37.845Z,98363.88
2024-04-23T21:56:06.286Z,98363.00
2024-04-23T21:58:37.800Z,98357.75
2024-04-23T22:01:19.633Z,98354.28
2024-04-23T22:03:47.322Z,98355.19
2024-04-23T22:06:14.520Z,98353.44
2024-04-23T22:08:41.516Z,98354.34
2024-04-23T22:11:08.288Z,98347.34
2024-04-23T22:13:35.367Z,98340.31
2024-04-23T22:16:02.192Z,98344.72
2024-04-23T22:18:29.037Z,98338.66
2024-04-23T22:20:55.799Z,98339.53
2024-04-23T22:23:25.136Z,98331.66
2024-04-23T22:25:51.900Z,98336.91
2024-04-23T22:28:18.718Z,98335.16
2024-04-23T22:30:46.633Z,98337.84
2024-04-23T22:33:13.586Z,98332.59
2024-04-23T22:35:40.507Z,98336.09
2024-04-23T22:38:07.144Z,98329.03
2024-04-23T22:40:33.781Z,98313.25
2024-04-23T22:43:00.382Z,98321.13
2024-04-23T22:45:29.231Z,98301.81
2024-04-23T22:47:56.128Z,98292.16
2024-04-23T22:50:22.985Z,98291.28
2024-04-23T22:52:49.934Z,98280.72
2024-04-23T22:55:16.603Z,98281.59
2024-04-23T22:57:43.264Z,98285.13
2024-04-23T23:00:10.536Z,98272.00
2024-04-23T23:02:37.268Z,98273.72
2024-04-23T23:05:04.147Z,98267.59
2024-04-23T23:07:30.859Z,98260.56
2024-04-23T23:09:57.478Z,98263.22
2024-04-23T23:12:24.109Z,98243.09
2024-04-23T23:14:50.932Z,98237.84
2024-04-23T23:17:20.557Z,98236.09
2024-04-23T23:19:47.304Z,98231.72
2024-04-23T23:22:13.984Z,98225.59
2024-04-23T23:24:40.634Z,98220.34
2024-04-23T23:27:07.279Z,98220.34
2024-04-23T23:29:33.923Z,98226.47
2024-04-23T23:32:00.617Z,98222.09
2024-04-23T23:34:27.292Z,98213.34
2024-04-23T23:36:53.924Z,98215.97
2024-04-23T23:39:20.533Z,98218.59
2024-04-23T23:41:47.193Z,98216.84
2024-04-23T23:44:13.863Z,98217.72
2024-04-23T23:46:40.695Z,98208.97
2024-04-23T23:49:07.310Z,98200.22
2024-04-23T23:51:34.056Z,98194.97
2024-04-23T23:54:00.790Z,98190.59
2024-04-23T23:56:27.393Z,98187.97
2024-04-23T23:58:54.090Z,98178.31
